Time;durP1;ratioP1;P1;durP2;ratioP2;P2;SDS_P1;SDS_P2;PMS_P1;PMS_P2;Temp;Humidity;BMP_temperature;BMP_pressure;BME280_temperature;BME280_humidity;BME280_pressure;Samples;Min_cycle;Max_cycle;Signal;HPM_P1;HPM_P2
2022/09/26 00:01:10;;;;;;;16.77;3.80;;;11.60;99.90;;;;;;5135653;27;20191;-53
2022/09/26 00:03:36;;;;;;;8.73;3.08;;;11.50;99.90;;;;;;5135372;27;20172;-53
2022/09/26 00:06:04;;;;;;;6.40;2.33;;;11.50;99.90;;;;;;5135309;27;20164;-53
2022/09/26 00:08:30;;;;;;;8.52;3.45;;;11.50;99.90;;;;;;5134562;27;20168;-54
2022/09/26 00:11:00;;;;;;;10.88;2.88;;;11.50;99.90;;;;;;5135716;27;20670;-53
2022/09/26 00:13:26;;;;;;;20.35;3.58;;;11.50;99.90;;;;;;5135390;27;20164;-53
2022/09/26 00:15:53;;;;;;;5.97;2.95;;;11.50;99.90;;;;;;5135338;27;20531;-54
2022/09/26 00:18:19;;;;;;;8.82;3.10;;;11.60;99.90;;;;;;5135311;27;20305;-54
2022/09/26 00:20:45;;;;;;;12.57;3.35;;;11.50;99.90;;;;;;5135590;27;20625;-54
2022/09/26 00:23:11;;;;;;;7.85;3.08;;;11.50;99.90;;;;;;5135202;27;20160;-54
2022/09/26 00:25:36;;;;;;;6.80;3.40;;;11.60;99.90;;;;;;5135090;27;20159;-54
2022/09/26 00:28:02;;;;;;;7.88;3.22;;;11.60;99.90;;;;;;5135237;27;20160;-54
2022/09/26 00:30:28;;;;;;;8.55;3.05;;;11.60;99.90;;;;;;5135513;27;20164;-53
2022/09/26 00:32:53;;;;;;;8.75;3.08;;;11.50;99.90;;;;;;5135192;27;20171;-53
2022/09/26 00:35:19;;;;;;;7.47;3.20;;;11.50;99.90;;;;;;5135251;27;20290;-53
2022/09/26 00:37:45;;;;;;;7.07;3.22;;;11.50;99.90;;;;;;5135291;27;20681;-53
2022/09/26 00:40:11;;;;;;;4.93;2.95;;;11.50;99.90;;;;;;5135023;27;20176;-53
2022/09/26 00:42:36;;;;;;;5.10;2.80;;;11.50;99.90;;;;;;5134968;27;20213;-53
2022/09/26 00:45:02;;;;;;;6.20;4.10;;;11.50;99.90;;;;;;5134891;27;20689;-53
2022/09/26 00:47:50;;;;;;;7.65;3.25;;;11.50;99.90;;;;;;5134883;27;20549;-53
2022/09/26 00:50:23;;;;;;;5.65;2.78;;;11.50;99.90;;;;;;5135043;27;20178;-53
2022/09/26 00:52:57;;;;;;;5.93;3.17;;;11.50;99.90;;;;;;5135013;27;20160;-53
2022/09/26 00:55:29;;;;;;;6.05;3.47;;;11.50;99.90;;;;;;5134324;27;20234;-53
2022/09/26 00:58:03;;;;;;;6.35;3.33;;;11.50;99.90;;;;;;5133657;27;20278;-53
2022/09/26 01:00:29;;;;;;;6.93;2.58;;;11.50;99.90;;;;;;5134821;27;20172;-53
2022/09/26 01:02:55;;;;;;;9.68;3.17;;;11.50;99.90;;;;;;5134474;27;20171;-53
2022/09/26 01:05:22;;;;;;;8.73;3.17;;;11.50;99.90;;;;;;5134336;27;20163;-53
2022/09/26 01:07:51;;;;;;;7.30;3.28;;;11.50;99.90;;;;;;5134620;27;20247;-53
2022/09/26 01:10:17;;;;;;;6.40;3.25;;;11.50;99.90;;;;;;5134689;27;20179;-53
2022/09/26 01:12:43;;;;;;;7.30;3.00;;;11.50;99.90;;;;;;5134238;27;20207;-53
2022/09/26 01:15:09;;;;;;;4.90;3.60;;;11.50;99.90;;;;;;5134378;27;20231;-53
2022/09/26 01:17:37;;;;;;;6.07;3.50;;;11.50;99.90;;;;;;5132861;27;20583;-53
2022/09/26 01:20:22;;;;;;;7.63;3.22;;;11.50;99.90;;;;;;5134090;27;20612;-53
2022/09/26 01:23:09;;;;;;;5.15;3.92;;;11.50;99.90;;;;;;5134583;27;20164;-53
2022/09/26 01:26:11;;;;;;;7.35;3.65;;;11.50;99.90;;;;;;5133872;27;20167;-53
2022/09/26 01:29:04;;;;;;;7.75;3.38;;;11.50;99.90;;;;;;5133712;27;20168;-53
2022/09/26 01:32:47;;;;;;;8.63;3.67;;;11.40;99.90;;;;;;5133698;27;20567;-53
2022/09/26 01:35:03;;;;;;;7.35;3.35;;;11.50;99.90;;;;;;5133481;27;20211;-53
2022/09/26 01:37:31;;;;;;;5.65;3.08;;;11.50;99.90;;;;;;5115849;27;20176;-53
2022/09/26 01:40:03;;;;;;;6.80;3.70;;;11.50;99.90;;;;;;5133842;27;20168;-53
2022/09/26 01:42:50;;;;;;;7.25;3.70;;;11.40;99.90;;;;;;5133654;27;20164;-52
2022/09/26 01:45:21;;;;;;;7.45;3.55;;;11.40;99.90;;;;;;5133867;27;20168;-53
2022/09/26 01:48:07;;;;;;;5.22;3.70;;;11.40;99.90;;;;;;5133856;27;20251;-54
2022/09/26 01:50:44;;;;;;;10.57;4.47;;;11.40;99.90;;;;;;5133312;27;20198;-54
2022/09/26 01:53:31;;;;;;;6.40;4.40;;;11.40;99.90;;;;;;5133446;27;20168;-54
2022/09/26 01:56:17;;;;;;;7.90;4.15;;;11.40;99.90;;;;;;5133231;27;20692;-54
2022/09/26 01:59:12;;;;;;;7.45;3.70;;;11.50;99.90;;;;;;5133593;27;20175;-54
2022/09/26 02:01:42;;;;;;;6.80;3.85;;;11.40;99.90;;;;;;5133353;27;20178;-54
2022/09/26 02:04:19;;;;;;;9.82;4.22;;;11.40;99.90;;;;;;5131799;27;20585;-54
2022/09/26 02:07:11;;;;;;;7.90;4.97;;;11.40;99.90;;;;;;5134554;27;20182;-53
2022/09/26 02:09:44;;;;;;;6.35;4.50;;;11.50;99.90;;;;;;5133393;27;20183;-54
2022/09/26 02:12:15;;;;;;;6.88;3.95;;;11.40;99.90;;;;;;5131819;27;20199;-54
2022/09/26 02:14:44;;;;;;;5.45;4.57;;;11.40;99.90;;;;;;5133149;27;20214;-55
2022/09/26 02:17:15;;;;;;;8.88;4.10;;;11.40;99.90;;;;;;5132674;27;20164;-55
2022/09/26 02:19:49;;;;;;;6.25;4.35;;;11.40;99.90;;;;;;5132951;27;20164;-54
2022/09/26 02:22:15;;;;;;;6.00;4.40;;;11.40;99.90;;;;;;5133463;27;20541;-54
2022/09/26 02:24:41;;;;;;;6.13;4.30;;;11.40;99.90;;;;;;5131676;27;20164;-54
2022/09/26 02:27:06;;;;;;;9.90;4.65;;;11.40;99.90;;;;;;5131631;27;20172;-53
2022/09/26 02:29:33;;;;;;;9.68;4.85;;;11.40;99.90;;;;;;5132941;27;20175;-53
2022/09/26 02:32:11;;;;;;;7.22;4.95;;;11.40;99.90;;;;;;5132895;27;20156;-53
2022/09/26 02:34:39;;;;;;;7.93;4.60;;;11.40;99.90;;;;;;5133008;27;20294;-53
2022/09/26 02:37:04;;;;;;;7.32;4.78;;;11.40;99.90;;;;;;5131456;27;20168;-54
2022/09/26 02:39:30;;;;;;;7.43;5.30;;;11.20;99.90;;;;;;5132675;27;20225;-53
2022/09/26 02:42:22;;;;;;;5.78;4.53;;;11.40;99.90;;;;;;5131325;27;20167;-54
2022/09/26 02:45:06;;;;;;;6.45;4.72;;;11.40;99.90;;;;;;5131896;27;20165;-54
2022/09/26 02:47:49;;;;;;;8.75;5.40;;;11.40;99.90;;;;;;5132664;27;20171;-53
2022/09/26 02:50:49;;;;;;;6.90;4.93;;;11.40;99.90;;;;;;5132965;27;20167;-53
2022/09/26 02:53:33;;;;;;;7.30;5.45;;;11.40;99.90;;;;;;5132704;27;20203;-53
2022/09/26 02:56:12;;;;;;;7.20;4.88;;;11.50;99.90;;;;;;5132105;27;20555;-53
2022/09/26 02:58:59;;;;;;;7.93;5.15;;;11.50;99.90;;;;;;5132608;27;20226;-53
2022/09/26 03:01:46;;;;;;;9.25;5.30;;;11.50;99.90;;;;;;5132531;27;20553;-53
2022/09/26 03:04:33;;;;;;;7.68;5.47;;;11.50;99.90;;;;;;5132495;27;20194;-53
2022/09/26 03:07:05;;;;;;;9.70;5.40;;;11.50;99.90;;;;;;5132433;27;20533;-53
2022/09/26 03:09:31;;;;;;;9.20;5.80;;;11.50;99.90;;;;;;5132392;27;20167;-53
2022/09/26 03:12:00;;;;;;;8.40;5.60;;;11.50;99.90;;;;;;5132557;27;20265;-53
2022/09/26 03:14:29;;;;;;;8.90;5.30;;;11.50;99.90;;;;;;5132244;27;20194;-53
2022/09/26 03:16:56;;;;;;;9.73;5.28;;;11.60;99.90;;;;;;5131098;28;20665;-53
2022/09/26 03:19:39;;;;;;;10.80;5.40;;;11.60;99.90;;;;;;5132357;27;20172;-53
2022/09/26 03:22:05;;;;;;;7.00;4.97;;;11.60;99.90;;;;;;5132564;27;20168;-53
2022/09/26 03:24:31;;;;;;;12.25;5.95;;;11.60;99.90;;;;;;5132266;27;20583;-53
2022/09/26 03:26:58;;;;;;;9.75;5.88;;;11.60;99.90;;;;;;5132304;27;20164;-53
2022/09/26 03:29:24;;;;;;;9.07;5.70;;;11.60;99.90;;;;;;5134065;27;20221;-52
2022/09/26 03:31:49;;;;;;;12.38;6.10;;;11.60;99.90;;;;;;5134868;27;20168;-53
2022/09/26 03:34:16;;;;;;;13.05;6.72;;;11.60;99.90;;;;;;5136516;27;20593;-53
2022/09/26 03:36:44;;;;;;;13.80;7.50;;;11.60;99.90;;;;;;5136304;27;20186;-53
2022/09/26 03:39:10;;;;;;;11.25;7.07;;;11.60;99.90;;;;;;5136328;27;20180;-53
2022/09/26 03:41:35;;;;;;;13.85;6.53;;;11.60;99.90;;;;;;5136228;27;20655;-53
2022/09/26 03:44:02;;;;;;;15.13;7.35;;;11.60;99.90;;;;;;5135962;27;20171;-53
2022/09/26 03:46:27;;;;;;;10.52;6.50;;;11.60;99.90;;;;;;5135832;27;20539;-53
2022/09/26 03:48:53;;;;;;;13.13;6.07;;;11.60;99.90;;;;;;5135930;27;20163;-53
2022/09/26 03:51:19;;;;;;;9.93;6.88;;;11.60;99.90;;;;;;5135733;27;20971;-53
2022/09/26 03:53:49;;;;;;;11.13;6.00;;;11.50;99.90;;;;;;5136151;27;20164;-53
2022/09/26 03:56:19;;;;;;;11.57;5.93;;;11.50;99.90;;;;;;5135979;27;20172;-53
2022/09/26 03:58:47;;;;;;;10.10;6.07;;;11.50;99.90;;;;;;5136015;27;20167;-53
2022/09/26 04:01:16;;;;;;;9.20;5.85;;;11.50;99.90;;;;;;5136285;27;20175;-53
2022/09/26 04:03:43;;;;;;;11.43;6.00;;;11.50;99.90;;;;;;5134207;27;20171;-53
2022/09/26 04:06:10;;;;;;;12.02;5.63;;;11.50;99.90;;;;;;5135851;27;20522;-53
2022/09/26 04:08:37;;;;;;;14.15;6.90;;;11.40;99.90;;;;;;5135456;27;20216;-53
2022/09/26 04:11:06;;;;;;;16.98;7.35;;;11.50;99.90;;;;;;5135796;27;20172;-53
2022/09/26 04:13:32;;;;;;;14.70;7.35;;;11.40;99.90;;;;;;5135295;27;20156;-52
2022/09/26 04:15:59;;;;;;;11.05;6.68;;;11.40;99.90;;;;;;5135717;27;20183;-53
2022/09/26 04:18:26;;;;;;;10.30;6.10;;;11.40;99.90;;;;;;5135472;27;20168;-53
2022/09/26 04:21:04;;;;;;;13.07;6.20;;;11.40;99.90;;;;;;5135247;27;20599;-53
2022/09/26 04:23:32;;;;;;;9.48;6.07;;;11.40;99.90;;;;;;5134028;27;20159;-53
2022/09/26 04:26:11;;;;;;;8.13;5.38;;;11.30;99.90;;;;;;5135405;27;20172;-53
2022/09/26 04:28:38;;;;;;;8.15;4.47;;;11.40;99.90;;;;;;5135071;27;20213;-53
2022/09/26 04:31:05;;;;;;;12.10;6.45;;;11.40;99.90;;;;;;5135072;27;20504;-53
2022/09/26 04:33:32;;;;;;;10.02;5.10;;;11.40;99.90;;;;;;5135037;27;20255;-53
2022/09/26 04:36:04;;;;;;;10.15;4.50;;;11.40;99.90;;;;;;5135059;27;20168;-50
2022/09/26 04:38:32;;;;;;;11.63;5.55;;;11.40;99.90;;;;;;5134906;27;20160;-50
2022/09/26 04:41:14;;;;;;;5.95;4.20;;;11.40;99.90;;;;;;5134671;27;20236;-50
2022/09/26 04:43:40;;;;;;;6.97;4.85;;;11.40;99.90;;;;;;5133354;27;20160;-53
2022/09/26 04:46:15;;;;;;;7.47;4.70;;;11.40;99.90;;;;;;5134783;27;20163;-52
2022/09/26 04:48:41;;;;;;;6.80;4.95;;;11.40;99.90;;;;;;5134715;27;20167;-51
2022/09/26 04:51:11;;;;;;;12.05;5.60;;;11.40;99.90;;;;;;5134630;27;20159;-51
2022/09/26 04:53:38;;;;;;;9.25;5.32;;;11.40;99.90;;;;;;5134556;27;20171;-51
2022/09/26 04:56:05;;;;;;;6.90;4.25;;;11.40;99.90;;;;;;5134089;27;20226;-51
2022/09/26 04:58:31;;;;;;;7.97;3.95;;;11.40;99.90;;;;;;5134557;27;20163;-51
2022/09/26 05:01:07;;;;;;;6.03;3.55;;;11.40;99.90;;;;;;5133266;27;20164;-52
2022/09/26 05:03:35;;;;;;;6.32;3.50;;;11.40;99.90;;;;;;5134725;27;20537;-52
2022/09/26 05:06:04;;;;;;;7.15;3.75;;;11.40;99.90;;;;;;5134586;27;20172;-52
2022/09/26 05:08:30;;;;;;;6.72;3.47;;;11.40;99.90;;;;;;5134406;27;20585;-52
2022/09/26 05:10:56;;;;;;;8.82;4.10;;;11.40;99.90;;;;;;5134520;27;20164;-53
2022/09/26 05:13:26;;;;;;;5.05;3.78;;;11.40;99.90;;;;;;5134431;27;20693;-52
2022/09/26 05:15:54;;;;;;;6.10;3.20;;;11.40;99.90;;;;;;5134444;27;20235;-52
2022/09/26 05:18:22;;;;;;;12.98;3.90;;;11.40;99.90;;;;;;5134204;27;20617;-52
2022/09/26 05:20:48;;;;;;;8.57;3.80;;;11.50;99.90;;;;;;5134811;27;20200;-53
2022/09/26 05:28:45;;;;;;;8.90;3.35;;;11.40;99.90;;;;;;5134547;27;20209;-54
2022/09/26 05:31:10;;;;;;;7.80;3.00;;;11.40;99.90;;;;;;5133857;27;20170;-54
2022/09/26 05:33:37;;;;;;;6.55;2.97;;;11.40;99.90;;;;;;5133999;27;20250;-53
2022/09/26 05:36:04;;;;;;;7.18;3.33;;;11.40;99.90;;;;;;5133455;27;20170;-54
2022/09/26 05:38:29;;;;;;;3.40;2.90;;;11.40;99.90;;;;;;5133442;27;20175;-53
2022/09/26 05:40:55;;;;;;;6.90;2.95;;;11.40;99.90;;;;;;5133427;27;20172;-54
2022/09/26 05:43:21;;;;;;;7.15;3.50;;;11.40;99.90;;;;;;5133441;27;20164;-53
2022/09/26 05:45:48;;;;;;;8.98;2.67;;;11.40;99.90;;;;;;5131875;27;20168;-54
2022/09/26 05:48:15;;;;;;;5.78;2.60;;;11.40;99.90;;;;;;5132395;27;20172;-52
2022/09/26 05:50:42;;;;;;;3.22;2.30;;;11.40;99.90;;;;;;5132516;27;20626;-51
2022/09/26 05:53:09;;;;;;;5.47;2.58;;;11.50;99.90;;;;;;5131472;27;20234;-52
2022/09/26 05:55:36;;;;;;;6.45;2.45;;;11.50;99.90;;;;;;5131867;27;20676;-53
2022/09/26 05:58:04;;;;;;;4.95;2.28;;;11.50;99.90;;;;;;5132406;27;20175;-53
2022/09/26 06:00:30;;;;;;;4.63;2.67;;;11.50;99.90;;;;;;5132032;27;20160;-54
2022/09/26 06:02:57;;;;;;;4.70;2.10;;;11.50;99.90;;;;;;5132016;27;20220;-53
2022/09/26 06:05:23;;;;;;;2.80;2.13;;;11.50;99.90;;;;;;5132235;27;20168;-53
2022/09/26 06:07:49;;;;;;;5.07;2.38;;;11.60;99.90;;;;;;5132196;27;20168;-53
2022/09/26 06:10:15;;;;;;;5.10;2.42;;;11.60;99.90;;;;;;5132161;27;20160;-53
2022/09/26 06:12:40;;;;;;;5.47;2.05;;;11.70;99.90;;;;;;5131873;27;20160;-53
2022/09/26 06:15:08;;;;;;;2.45;1.83;;;11.80;99.90;;;;;;5131662;27;20196;-53
2022/09/26 06:17:33;;;;;;;6.90;2.42;;;11.80;99.90;;;;;;5132023;27;20198;-53
2022/09/26 06:19:59;;;;;;;4.70;2.28;;;11.90;99.90;;;;;;5131737;27;20617;-53
2022/09/26 06:22:25;;;;;;;7.72;2.65;;;11.90;99.90;;;;;;5131759;27;20636;-54
2022/09/26 06:24:51;;;;;;;7.70;2.20;;;12.00;99.90;;;;;;5130393;27;20625;-53
2022/09/26 06:27:17;;;;;;;5.50;3.13;;;12.00;99.90;;;;;;5131672;27;20202;-54
2022/09/26 06:29:43;;;;;;;7.93;3.58;;;12.00;99.90;;;;;;5131857;27;20636;-53
2022/09/26 06:32:08;;;;;;;7.72;3.05;;;12.10;99.90;;;;;;5131585;27;20160;-53
2022/09/26 06:34:34;;;;;;;7.90;3.67;;;12.10;99.90;;;;;;5131346;27;20566;-53
2022/09/26 06:36:59;;;;;;;11.85;3.97;;;12.10;99.90;;;;;;5131519;27;20224;-53
2022/09/26 06:39:34;;;;;;;8.93;3.83;;;12.10;99.90;;;;;;5131381;27;20220;-53
2022/09/26 06:42:00;;;;;;;7.70;3.40;;;12.10;99.90;;;;;;5131465;27;20173;-53
2022/09/26 06:44:26;;;;;;;4.90;3.20;;;12.20;99.90;;;;;;5131423;27;20167;-53
2022/09/26 06:46:51;;;;;;;9.13;3.65;;;12.10;99.90;;;;;;5131435;27;20168;-53
2022/09/26 06:49:17;;;;;;;6.53;2.67;;;12.20;99.90;;;;;;5130179;27;20176;-53
2022/09/26 06:51:42;;;;;;;7.05;3.60;;;12.20;99.90;;;;;;5131746;27;20175;-53
2022/09/26 06:54:09;;;;;;;10.73;3.25;;;12.20;99.90;;;;;;5131286;27;20707;-53
2022/09/26 06:56:34;;;;;;;9.30;2.95;;;12.20;99.90;;;;;;5130532;27;20172;-53
2022/09/26 06:59:01;;;;;;;7.13;2.67;;;12.30;99.90;;;;;;5131272;27;20658;-53
2022/09/26 07:01:26;;;;;;;7.47;2.97;;;12.30;99.90;;;;;;5130947;27;20573;-53
2022/09/26 07:03:52;;;;;;;5.40;2.40;;;12.30;99.90;;;;;;5133738;27;20182;-53
2022/09/26 07:06:17;;;;;;;5.13;2.28;;;12.30;99.90;;;;;;5135648;27;20171;-53
2022/09/26 07:08:43;;;;;;;4.05;1.75;;;12.30;99.90;;;;;;5135776;27;20259;-53
2022/09/26 07:11:08;;;;;;;3.25;1.88;;;12.30;99.90;;;;;;5135340;27;20175;-53
2022/09/26 07:13:35;;;;;;;5.80;2.92;;;12.30;99.90;;;;;;5135170;27;20185;-53
2022/09/26 07:16:00;;;;;;;4.15;2.05;;;12.30;99.90;;;;;;5135132;27;20207;-53
2022/09/26 07:18:27;;;;;;;8.05;3.13;;;12.30;99.90;;;;;;5135162;27;20694;-53
2022/09/26 07:20:52;;;;;;;8.55;2.90;;;12.40;99.90;;;;;;5135442;27;20163;-53
2022/09/26 07:23:18;;;;;;;10.18;3.05;;;12.30;99.90;;;;;;5135225;27;20252;-53
2022/09/26 07:25:45;;;;;;;5.70;2.65;;;12.40;99.90;;;;;;5135318;27;20165;-53
2022/09/26 07:28:11;;;;;;;6.43;2.03;;;12.40;99.90;;;;;;5135419;27;20175;-53
2022/09/26 07:30:37;;;;;;;6.15;1.60;;;12.40;99.90;;;;;;5135155;27;20164;-53
2022/09/26 07:33:04;;;;;;;4.93;1.45;;;12.30;99.90;;;;;;5135017;27;20174;-53
2022/09/26 07:35:31;;;;;;;1.58;1.35;;;12.30;99.90;;;;;;5134844;27;20282;-53
2022/09/26 07:37:58;;;;;;;5.78;1.83;;;12.40;99.90;;;;;;5135201;27;20175;-53
2022/09/26 07:40:24;;;;;;;4.05;1.20;;;12.40;99.90;;;;;;5134802;27;20160;-53
2022/09/26 07:42:51;;;;;;;2.88;1.25;;;12.30;99.90;;;;;;5134613;27;20221;-53
2022/09/26 07:50:09;;;;;;;5.28;1.27;;;12.30;99.90;;;;;;5134953;27;20230;-53
2022/09/26 07:50:52;;;;;;;5.47;1.38;;;12.30;99.90;;;;;;5134551;27;20263;-53
2022/09/26 07:53:18;;;;;;;5.90;1.58;;;12.30;99.90;;;;;;5134537;27;20160;-53
2022/09/26 07:56:04;;;;;;;2.65;1.02;;;12.30;99.90;;;;;;5134631;27;20230;-54
2022/09/26 07:58:29;;;;;;;2.05;1.00;;;12.20;99.90;;;;;;5134356;27;20172;-53
2022/09/26 08:01:13;;;;;;;2.08;1.15;;;12.20;99.90;;;;;;5134531;27;20164;-53
2022/09/26 08:03:44;;;;;;;3.70;1.30;;;12.20;99.90;;;;;;5134583;27;20223;-53
2022/09/26 08:06:13;;;;;;;4.32;1.20;;;12.20;99.90;;;;;;5132969;27;20628;-53
2022/09/26 08:08:40;;;;;;;4.18;1.30;;;12.20;99.90;;;;;;5134181;27;20187;-53
2022/09/26 08:11:17;;;;;;;9.65;2.58;;;12.10;99.90;;;;;;5134494;27;20527;-53
2022/09/26 08:13:43;;;;;;;4.78;1.55;;;12.20;99.90;;;;;;5134396;27;20167;-53
2022/09/26 08:16:09;;;;;;;2.33;1.30;;;12.20;99.90;;;;;;5133278;27;20167;-54
2022/09/26 08:18:35;;;;;;;4.60;1.10;;;12.20;99.90;;;;;;5134061;27;20164;-54
2022/09/26 08:21:05;;;;;;;4.25;1.25;;;12.20;99.90;;;;;;5134046;27;20171;-53
2022/09/26 08:23:34;;;;;;;4.97;1.35;;;12.20;99.90;;;;;;5133980;27;20192;-53
2022/09/26 08:26:05;;;;;;;7.38;1.25;;;12.20;99.90;;;;;;5134062;27;20186;-54
2022/09/26 08:28:31;;;;;;;1.95;1.27;;;12.20;99.90;;;;;;5134140;27;20179;-53
2022/09/26 08:30:59;;;;;;;3.03;1.70;;;12.30;99.90;;;;;;5132207;27;20160;-53
2022/09/26 08:33:25;;;;;;;6.68;1.35;;;12.20;99.90;;;;;;5133492;27;20167;-53
2022/09/26 08:35:51;;;;;;;2.65;0.95;;;12.30;99.90;;;;;;5133889;27;20207;-54
2022/09/26 08:38:17;;;;;;;5.68;1.40;;;12.30;99.90;;;;;;5133778;27;20183;-53
2022/09/26 08:41:31;;;;;;;1.42;1.25;;;12.30;99.90;;;;;;5133986;27;20191;-53
2022/09/26 08:44:20;;;;;;;2.80;0.98;;;12.30;99.90;;;;;;5132414;27;20180;-53
2022/09/26 08:47:00;;;;;;;4.43;1.33;;;12.40;99.90;;;;;;5133792;27;20255;-54
2022/09/26 08:49:38;;;;;;;2.97;1.20;;;12.50;99.90;;;;;;5133676;27;20220;-53
2022/09/26 08:52:26;;;;;;;2.35;1.00;;;12.50;99.90;;;;;;5133190;27;20159;-53
2022/09/26 08:54:54;;;;;;;1.48;1.20;;;12.60;99.90;;;;;;5125851;27;20699;-53
2022/09/26 08:57:43;;;;;;;1.17;1.08;;;12.60;99.90;;;;;;5133638;27;20243;-53
2022/09/26 09:00:12;;;;;;;2.30;1.40;;;12.60;99.90;;;;;;5133346;27;20164;-53
2022/09/26 09:02:42;;;;;;;0.98;0.90;;;12.70;99.90;;;;;;5133470;27;20570;-53
2022/09/26 09:05:13;;;;;;;1.67;1.00;;;12.60;99.90;;;;;;5133626;27;20172;-53
2022/09/26 09:07:39;;;;;;;5.55;2.08;;;12.70;99.90;;;;;;5133395;27;20160;-54
2022/09/26 09:10:09;;;;;;;4.63;1.98;;;12.70;99.90;;;;;;5133220;27;20629;-53
2022/09/26 09:13:12;;;;;;;7.28;2.13;;;12.70;99.90;;;;;;5133089;27;20614;-53
2022/09/26 09:16:02;;;;;;;3.63;1.73;;;12.70;99.90;;;;;;5133050;27;20200;-54
2022/09/26 09:18:54;;;;;;;5.50;2.55;;;12.70;99.90;;;;;;5132005;27;20301;-54
2022/09/26 09:21:41;;;;;;;2.72;1.60;;;12.70;99.90;;;;;;5132945;27;20164;-53
2022/09/26 09:24:34;;;;;;;3.83;2.13;;;12.60;99.90;;;;;;5132975;27;20247;-54
2022/09/26 09:27:42;;;;;;;6.35;2.10;;;12.60;99.90;;;;;;5131903;27;20233;-54
2022/09/26 09:30:24;;;;;;;4.25;1.90;;;12.60;99.90;;;;;;5072662;28;20625;-53
2022/09/26 09:33:12;;;;;;;4.00;2.13;;;12.60;99.90;;;;;;5130569;27;20192;-53
2022/09/26 09:35:47;;;;;;;9.60;2.13;;;12.70;99.90;;;;;;5132606;27;20204;-54
2022/09/26 09:38:21;;;;;;;3.92;1.80;;;12.70;99.90;;;;;;5132973;27;20190;-54
2022/09/26 09:41:11;;;;;;;3.00;1.70;;;12.60;99.90;;;;;;5132588;27;20304;-54
2022/09/26 09:43:40;;;;;;;3.75;2.22;;;12.60;99.90;;;;;;5132635;27;20168;-54
2022/09/26 09:46:23;;;;;;;7.13;3.03;;;12.70;99.90;;;;;;5132451;27;20181;-54
2022/09/26 09:49:14;;;;;;;5.30;2.55;;;12.70;99.90;;;;;;5132529;27;20205;-53
2022/09/26 09:51:50;;;;;;;11.55;3.45;;;12.80;99.90;;;;;;5124688;27;20223;-54
2022/09/26 09:54:27;;;;;;;5.93;3.10;;;12.90;99.90;;;;;;5132545;27;20253;-54
2022/09/26 09:57:01;;;;;;;7.20;2.97;;;13.00;99.90;;;;;;5132094;27;20532;-53
2022/09/26 10:00:05;;;;;;;8.30;2.58;;;12.90;99.90;;;;;;5132273;27;20175;-54
2022/09/26 10:02:38;;;;;;;6.63;3.05;;;12.90;99.90;;;;;;5131940;27;20526;-53
2022/09/26 10:05:23;;;;;;;6.28;2.90;;;12.90;99.90;;;;;;5132129;27;20167;-53
2022/09/26 10:07:53;;;;;;;5.85;2.20;;;13.00;99.90;;;;;;5130806;27;20544;-54
2022/09/26 10:10:23;;;;;;;5.07;2.97;;;13.00;99.90;;;;;;5132086;27;20172;-54
2022/09/26 10:12:50;;;;;;;6.30;2.75;;;13.00;99.90;;;;;;5131740;27;20190;-54
2022/09/26 10:15:25;;;;;;;4.03;1.70;;;13.10;99.90;;;;;;5131946;27;20653;-53
2022/09/26 10:18:05;;;;;;;8.10;2.08;;;13.10;99.90;;;;;;5132008;27;20178;-53
2022/09/26 10:20:38;;;;;;;2.63;1.83;;;13.20;99.90;;;;;;5131299;27;20176;-53
2022/09/26 10:23:23;;;;;;;3.33;1.92;;;14.80;99.90;;;;;;5131746;27;20533;-53
2022/09/26 10:25:52;;;;;;;7.15;2.17;;;13.20;99.90;;;;;;5123386;27;20237;-53
2022/09/26 10:28:43;;;;;;;2.10;1.45;;;13.20;99.90;;;;;;5132025;27;20175;-54
2022/09/26 10:31:20;;;;;;;5.97;1.52;;;13.30;99.90;;;;;;5131470;27;20164;-54
2022/09/26 10:33:48;;;;;;;5.10;1.67;;;13.30;99.90;;;;;;5132041;27;20518;-54
2022/09/26 10:36:20;;;;;;;7.20;2.00;;;13.40;99.90;;;;;;5130723;27;20267;-54
2022/09/26 10:41:43;;;;;;;3.60;2.05;;;13.60;99.90;;;;;;5132105;27;20225;-54
2022/09/26 10:44:33;;;;;;;6.18;1.70;;;13.70;99.90;;;;;;5131776;27;20213;-54
2022/09/26 10:47:07;;;;;;;2.88;1.52;;;13.80;99.90;;;;;;5131136;27;20156;-54
2022/09/26 10:49:58;;;;;;;3.03;1.70;;;13.90;99.90;;;;;;5131624;27;20168;-53
2022/09/26 10:52:33;;;;;;;3.10;1.55;;;13.90;99.90;;;;;;5131523;27;20528;-53
2022/09/26 10:55:17;;;;;;;2.22;1.45;;;13.90;99.90;;;;;;5131195;27;20226;-54
2022/09/26 10:57:49;;;;;;;2.55;1.63;;;13.90;99.90;;;;;;5131551;27;20170;-53
2022/09/26 11:00:20;;;;;;;1.70;1.17;;;13.90;99.90;;;;;;5131348;27;20174;-53
2022/09/26 11:02:50;;;;;;;9.35;2.20;;;13.90;99.90;;;;;;5131233;27;20168;-54
2022/09/26 11:08:05;;;;;;;4.95;1.90;;;14.10;99.90;;;;;;5131147;28;21028;-53
2022/09/26 11:10:32;;;;;;;2.55;1.55;;;14.20;99.90;;;;;;5131041;27;20168;-54
2022/09/26 11:13:19;;;;;;;3.40;1.45;;;14.30;99.90;;;;;;5131236;27;20255;-53
2022/09/26 11:16:17;;;;;;;2.45;1.20;;;14.40;99.90;;;;;;5131506;27;20212;-54
2022/09/26 11:18:49;;;;;;;2.08;1.50;;;14.30;99.90;;;;;;5131640;27;20232;-54
2022/09/26 11:21:46;;;;;;;5.80;2.35;;;14.50;99.90;;;;;;5131733;27;20171;-54
2022/09/26 11:24:21;;;;;;;4.47;2.15;;;14.50;99.90;;;;;;5131317;27;20168;-53
2022/09/26 11:27:22;;;;;;;6.53;1.88;;;14.50;99.90;;;;;;5131164;27;20167;-54
2022/09/26 11:29:52;;;;;;;4.57;1.60;;;14.30;99.90;;;;;;5127798;28;20209;-54
2022/09/26 11:32:39;;;;;;;4.03;1.88;;;14.30;99.90;;;;;;5131100;27;20176;-53
2022/09/26 11:35:11;;;;;;;5.88;2.03;;;14.30;99.90;;;;;;5130832;27;20207;-54
2022/09/26 11:38:08;;;;;;;6.78;2.08;;;14.30;99.90;;;;;;5130688;27;20232;-54
2022/09/26 11:40:42;;;;;;;2.88;1.45;;;14.30;99.90;;;;;;5130816;27;20168;-54
2022/09/26 11:43:39;;;;;;;11.40;5.72;;;14.30;99.90;;;;;;5130780;27;20167;-54
2022/09/26 11:46:34;;;;;;;7.03;3.58;;;14.40;99.90;;;;;;5115831;27;20183;-54
2022/09/26 11:49:23;;;;;;;7.22;2.88;;;14.40;99.90;;;;;;5131012;27;20164;-54
2022/09/26 11:52:06;;;;;;;3.60;2.25;;;14.40;99.90;;;;;;5134509;27;20175;-54
2022/09/26 11:54:34;;;;;;;7.55;3.30;;;14.40;99.90;;;;;;5133965;27;20663;-54
2022/09/26 11:57:16;;;;;;;4.88;2.20;;;14.40;99.90;;;;;;5134283;27;20191;-53
2022/09/26 12:00:01;;;;;;;3.85;1.88;;;14.60;99.90;;;;;;5134930;27;20171;-53
2022/09/26 12:02:49;;;;;;;15.85;12.40;;;14.60;99.90;;;;;;5133882;27;20180;-53
2022/09/26 12:05:40;;;;;;;14.45;10.18;;;14.60;99.90;;;;;;5133226;27;20190;-54
2022/09/26 12:08:30;;;;;;;3.60;2.08;;;14.50;99.90;;;;;;5134130;27;20174;-53
2022/09/26 12:11:14;;;;;;;5.28;3.83;;;14.50;99.90;;;;;;5134331;27;20247;-53
2022/09/26 12:14:01;;;;;;;6.20;5.15;;;14.50;99.90;;;;;;5133780;27;20160;-53
2022/09/26 12:16:40;;;;;;;5.32;1.83;;;14.60;99.90;;;;;;5134127;27;20180;-54
2022/09/26 12:19:31;;;;;;;6.72;3.10;;;14.70;99.90;;;;;;5133828;27;20186;-53
2022/09/26 12:25:10;;;;;;;7.93;3.70;;;14.60;99.90;;;;;;5134338;27;20167;-54
2022/09/26 12:28:04;;;;;;;6.88;3.45;;;14.60;99.90;;;;;;5134234;27;20179;-55
2022/09/26 12:31:01;;;;;;;6.70;2.53;;;14.70;99.90;;;;;;5133757;27;20156;-54
2022/09/26 12:33:33;;;;;;;6.55;1.80;;;14.60;99.90;;;;;;5133878;27;20636;-54
2022/09/26 12:36:17;;;;;;;4.03;2.10;;;14.40;99.90;;;;;;5133687;27;20648;-54
2022/09/26 12:39:17;;;;;;;3.22;1.88;;;14.20;99.90;;;;;;5134362;27;20178;-54
2022/09/26 12:42:25;;;;;;;4.43;2.15;;;14.00;99.90;;;;;;5134303;27;20210;-54
2022/09/26 12:44:56;;;;;;;10.25;3.00;;;13.80;99.90;;;;;;5090452;28;20177;-54
2022/09/26 12:47:36;;;;;;;2.58;1.90;;;13.80;99.90;;;;;;5090592;28;20622;-54
2022/09/26 12:50:14;;;;;;;4.32;1.67;;;13.70;99.90;;;;;;5116824;27;20188;-54
2022/09/26 12:53:17;;;;;;;3.22;1.10;;;13.70;99.90;;;;;;5127091;27;20168;-54
2022/09/26 12:55:55;;;;;;;7.63;1.33;;;13.70;99.90;;;;;;5130254;27;20222;-54
2022/09/26 12:58:56;;;;;;;2.63;1.40;;;13.70;99.90;;;;;;5133062;27;20684;-54
2022/09/26 13:01:52;;;;;;;4.10;1.80;;;13.90;99.90;;;;;;5132759;27;20174;-54
2022/09/26 13:04:44;;;;;;;4.00;1.60;;;13.80;99.90;;;;;;5132793;27;20280;-54
2022/09/26 13:07:50;;;;;;;2.28;1.23;;;13.80;99.90;;;;;;5116698;27;20661;-54
2022/09/26 13:10:34;;;;;;;2.92;1.45;;;13.80;99.90;;;;;;5133017;27;20585;-54
2022/09/26 13:13:39;;;;;;;3.45;2.03;;;14.00;99.90;;;;;;5133034;27;20271;-54
2022/09/26 13:16:53;;;;;;;6.47;2.63;;;14.00;99.90;;;;;;5132383;27;20199;-54
2022/09/26 13:19:24;;;;;;;9.57;2.70;;;14.10;99.90;;;;;;5113933;27;20258;-54
2022/09/26 13:21:58;;;;;;;5.75;2.85;;;14.10;99.90;;;;;;5132626;27;20589;-54
2022/09/26 13:24:31;;;;;;;9.93;2.60;;;14.10;99.90;;;;;;5132864;27;20222;-54
2022/09/26 13:27:39;;;;;;;3.78;2.03;;;14.00;99.90;;;;;;5132455;27;20688;-54
2022/09/26 13:30:15;;;;;;;3.65;1.90;;;13.90;99.90;;;;;;5126774;27;20230;-54
2022/09/26 13:33:17;;;;;;;3.85;1.80;;;13.80;99.90;;;;;;5131258;27;20168;-53
2022/09/26 13:35:46;;;;;;;3.75;1.83;;;13.70;99.90;;;;;;5132728;27;20695;-54
2022/09/26 13:38:42;;;;;;;2.58;1.83;;;13.70;99.90;;;;;;5132678;27;20707;-53
2022/09/26 13:41:36;;;;;;;4.57;2.33;;;13.70;99.90;;;;;;5131504;27;20168;-54